sensor_id;sensor_type;location;lat;lon;timestamp;P1;durP1;ratioP1;P2;durP2;ratioP2
19798;SDS011;10059;59.850;10.454;2023-05-14T00:01:32;15.57;;;8.53;;
19798;SDS011;10059;59.850;10.454;2023-05-14T00:04:00;17.53;;;9.07;;
19798;SDS011;10059;59.850;10.454;2023-05-14T00:06:26;12.10;;;8.53;;
19798;SDS011;10059;59.850;10.454;2023-05-14T00:08:55;11.87;;;8.60;;
19798;SDS011;10059;59.850;10.454;2023-05-14T00:11:21;15.23;;;8.80;;
19798;SDS011;10059;59.850;10.454;2023-05-14T00:13:48;11.87;;;8.43;;
19798;SDS011;10059;59.850;10.454;2023-05-14T00:16:15;13.10;;;8.83;;
19798;SDS011;10059;59.850;10.454;2023-05-14T00:18:42;11.63;;;9.00;;
19798;SDS011;10059;59.850;10.454;2023-05-14T00:21:09;17.73;;;9.23;;
19798;SDS011;10059;59.850;10.454;2023-05-14T00:23:36;14.13;;;10.23;;
19798;SDS011;10059;59.850;10.454;2023-05-14T00:26:05;13.00;;;9.27;;
19798;SDS011;10059;59.850;10.454;2023-05-14T00:28:32;14.97;;;9.30;;
19798;SDS011;10059;59.850;10.454;2023-05-14T00:30:58;12.87;;;9.20;;
19798;SDS011;10059;59.850;10.454;2023-05-14T00:33:25;13.13;;;9.37;;
19798;SDS011;10059;59.850;10.454;2023-05-14T00:35:52;14.50;;;9.67;;
19798;SDS011;10059;59.850;10.454;2023-05-14T00:38:19;16.17;;;9.30;;
19798;SDS011;10059;59.850;10.454;2023-05-14T00:40:48;15.57;;;9.63;;
19798;SDS011;10059;59.850;10.454;2023-05-14T00:43:17;14.60;;;10.00;;
19798;SDS011;10059;59.850;10.454;2023-05-14T00:45:44;19.07;;;11.50;;
19798;SDS011;10059;59.850;10.454;2023-05-14T00:48:12;15.10;;;10.40;;
19798;SDS011;10059;59.850;10.454;2023-05-14T00:50:39;14.90;;;10.43;;
19798;SDS011;10059;59.850;10.454;2023-05-14T00:53:07;15.40;;;9.57;;
19798;SDS011;10059;59.850;10.454;2023-05-14T00:55:34;14.33;;;10.00;;
19798;SDS011;10059;59.850;10.454;2023-05-14T00:58:03;13.07;;;9.37;;
19798;SDS011;10059;59.850;10.454;2023-05-14T01:00:33;14.07;;;9.60;;
19798;SDS011;10059;59.850;10.454;2023-05-14T01:03:02;12.53;;;9.60;;
19798;SDS011;10059;59.850;10.454;2023-05-14T01:05:31;14.70;;;9.50;;
19798;SDS011;10059;59.850;10.454;2023-05-14T01:08:07;17.57;;;9.37;;
19798;SDS011;10059;59.850;10.454;2023-05-14T01:10:41;16.40;;;9.73;;
19798;SDS011;10059;59.850;10.454;2023-05-14T01:13:17;13.53;;;9.97;;
19798;SDS011;10059;59.850;10.454;2023-05-14T01:15:50;15.13;;;9.90;;
19798;SDS011;10059;59.850;10.454;2023-05-14T01:18:21;13.03;;;10.10;;
19798;SDS011;10059;59.850;10.454;2023-05-14T01:20:49;11.97;;;9.23;;
19798;SDS011;10059;59.850;10.454;2023-05-14T01:23:18;12.50;;;9.53;;
19798;SDS011;10059;59.850;10.454;2023-05-14T01:25:45;11.90;;;9.50;;
19798;SDS011;10059;59.850;10.454;2023-05-14T01:28:14;15.70;;;10.17;;
19798;SDS011;10059;59.850;10.454;2023-05-14T01:30:44;11.40;;;9.43;;
19798;SDS011;10059;59.850;10.454;2023-05-14T01:33:15;12.43;;;9.73;;
19798;SDS011;10059;59.850;10.454;2023-05-14T01:35:44;15.77;;;9.57;;
19798;SDS011;10059;59.850;10.454;2023-05-14T01:38:11;13.23;;;9.50;;
19798;SDS011;10059;59.850;10.454;2023-05-14T01:40:41;15.47;;;9.87;;
19798;SDS011;10059;59.850;10.454;2023-05-14T01:43:10;13.00;;;9.17;;
19798;SDS011;10059;59.850;10.454;2023-05-14T01:45:37;15.07;;;9.47;;
19798;SDS011;10059;59.850;10.454;2023-05-14T01:48:04;14.10;;;10.23;;
19798;SDS011;10059;59.850;10.454;2023-05-14T01:50:31;16.27;;;9.83;;
19798;SDS011;10059;59.850;10.454;2023-05-14T01:52:58;15.93;;;10.23;;
19798;SDS011;10059;59.850;10.454;2023-05-14T01:55:24;14.00;;;10.80;;
19798;SDS011;10059;59.850;10.454;2023-05-14T01:57:53;15.10;;;10.77;;
19798;SDS011;10059;59.850;10.454;2023-05-14T02:00:21;13.63;;;10.47;;
19798;SDS011;10059;59.850;10.454;2023-05-14T02:02:49;14.40;;;10.60;;
19798;SDS011;10059;59.850;10.454;2023-05-14T02:05:16;13.60;;;10.10;;
19798;SDS011;10059;59.850;10.454;2023-05-14T02:07:42;13.37;;;9.70;;
19798;SDS011;10059;59.850;10.454;2023-05-14T02:10:09;14.27;;;9.53;;
19798;SDS011;10059;59.850;10.454;2023-05-14T02:12:36;15.33;;;10.07;;
19798;SDS011;10059;59.850;10.454;2023-05-14T02:15:05;13.50;;;9.70;;
19798;SDS011;10059;59.850;10.454;2023-05-14T02:17:34;14.63;;;10.30;;
19798;SDS011;10059;59.850;10.454;2023-05-14T02:20:01;15.20;;;10.53;;
19798;SDS011;10059;59.850;10.454;2023-05-14T02:22:29;13.83;;;10.23;;
19798;SDS011;10059;59.850;10.454;2023-05-14T02:24:55;16.00;;;10.03;;
19798;SDS011;10059;59.850;10.454;2023-05-14T02:27:22;15.90;;;10.17;;
19798;SDS011;10059;59.850;10.454;2023-05-14T02:29:49;15.93;;;10.23;;
19798;SDS011;10059;59.850;10.454;2023-05-14T02:32:17;14.90;;;10.63;;
19798;SDS011;10059;59.850;10.454;2023-05-14T02:34:44;12.33;;;10.30;;
19798;SDS011;10059;59.850;10.454;2023-05-14T02:37:11;15.03;;;10.20;;
19798;SDS011;10059;59.850;10.454;2023-05-14T02:39:38;16.57;;;10.83;;
19798;SDS011;10059;59.850;10.454;2023-05-14T02:42:05;19.73;;;10.33;;
19798;SDS011;10059;59.850;10.454;2023-05-14T02:44:32;21.47;;;11.00;;
19798;SDS011;10059;59.850;10.454;2023-05-14T02:46:59;12.63;;;10.10;;
19798;SDS011;10059;59.850;10.454;2023-05-14T02:49:27;16.33;;;10.70;;
19798;SDS011;10059;59.850;10.454;2023-05-14T02:51:54;14.17;;;10.40;;
19798;SDS011;10059;59.850;10.454;2023-05-14T02:54:20;14.67;;;11.80;;
19798;SDS011;10059;59.850;10.454;2023-05-14T02:56:47;17.00;;;11.73;;
19798;SDS011;10059;59.850;10.454;2023-05-14T02:59:14;17.50;;;12.07;;
19798;SDS011;10059;59.850;10.454;2023-05-14T03:01:41;16.50;;;12.07;;
19798;SDS011;10059;59.850;10.454;2023-05-14T03:04:08;16.20;;;12.03;;
19798;SDS011;10059;59.850;10.454;2023-05-14T03:06:36;17.23;;;11.63;;
19798;SDS011;10059;59.850;10.454;2023-05-14T03:09:03;15.17;;;11.50;;
19798;SDS011;10059;59.850;10.454;2023-05-14T03:11:30;14.87;;;11.50;;
19798;SDS011;10059;59.850;10.454;2023-05-14T03:13:56;13.83;;;10.93;;
19798;SDS011;10059;59.850;10.454;2023-05-14T03:16:23;17.00;;;10.97;;
19798;SDS011;10059;59.850;10.454;2023-05-14T03:18:50;17.03;;;11.23;;
19798;SDS011;10059;59.850;10.454;2023-05-14T03:21:17;15.83;;;10.87;;
19798;SDS011;10059;59.850;10.454;2023-05-14T03:23:45;13.47;;;10.73;;
19798;SDS011;10059;59.850;10.454;2023-05-14T03:26:12;13.77;;;10.10;;
19798;SDS011;10059;59.850;10.454;2023-05-14T03:28:39;15.83;;;11.10;;
19798;SDS011;10059;59.850;10.454;2023-05-14T03:31:05;13.67;;;9.83;;
19798;SDS011;10059;59.850;10.454;2023-05-14T03:33:32;14.70;;;10.20;;
19798;SDS011;10059;59.850;10.454;2023-05-14T03:35:59;13.37;;;10.30;;
19798;SDS011;10059;59.850;10.454;2023-05-14T03:38:26;15.60;;;10.20;;
19798;SDS011;10059;59.850;10.454;2023-05-14T03:40:55;15.90;;;10.73;;
19798;SDS011;10059;59.850;10.454;2023-05-14T03:43:22;16.27;;;10.93;;
19798;SDS011;10059;59.850;10.454;2023-05-14T03:45:49;17.60;;;11.13;;
19798;SDS011;10059;59.850;10.454;2023-05-14T03:48:17;14.37;;;10.27;;
19798;SDS011;10059;59.850;10.454;2023-05-14T03:50:44;12.87;;;10.17;;
19798;SDS011;10059;59.850;10.454;2023-05-14T03:53:11;13.13;;;10.10;;
19798;SDS011;10059;59.850;10.454;2023-05-14T03:55:37;13.37;;;10.10;;
19798;SDS011;10059;59.850;10.454;2023-05-14T03:58:06;16.33;;;10.40;;
19798;SDS011;10059;59.850;10.454;2023-05-14T04:00:37;13.73;;;9.87;;
19798;SDS011;10059;59.850;10.454;2023-05-14T04:03:05;12.73;;;10.00;;
19798;SDS011;10059;59.850;10.454;2023-05-14T04:05:32;17.07;;;9.37;;
19798;SDS011;10059;59.850;10.454;2023-05-14T04:07:59;14.93;;;9.40;;
19798;SDS011;10059;59.850;10.454;2023-05-14T04:10:26;13.27;;;9.20;;
19798;SDS011;10059;59.850;10.454;2023-05-14T04:12:53;11.67;;;8.90;;
19798;SDS011;10059;59.850;10.454;2023-05-14T04:15:21;12.40;;;8.87;;
19798;SDS011;10059;59.850;10.454;2023-05-14T04:17:48;11.90;;;8.47;;
19798;SDS011;10059;59.850;10.454;2023-05-14T04:20:15;11.73;;;8.17;;
19798;SDS011;10059;59.850;10.454;2023-05-14T04:22:42;11.70;;;8.87;;
19798;SDS011;10059;59.850;10.454;2023-05-14T04:25:09;11.20;;;8.37;;
19798;SDS011;10059;59.850;10.454;2023-05-14T04:27:36;12.73;;;8.13;;
19798;SDS011;10059;59.850;10.454;2023-05-14T04:30:03;11.73;;;8.33;;
19798;SDS011;10059;59.850;10.454;2023-05-14T04:32:33;11.03;;;8.33;;
19798;SDS011;10059;59.850;10.454;2023-05-14T04:35:00;11.33;;;7.50;;
19798;SDS011;10059;59.850;10.454;2023-05-14T04:37:28;9.67;;;7.73;;
19798;SDS011;10059;59.850;10.454;2023-05-14T04:39:55;12.37;;;7.57;;
19798;SDS011;10059;59.850;10.454;2023-05-14T04:42:22;10.10;;;7.23;;
19798;SDS011;10059;59.850;10.454;2023-05-14T04:44:49;11.33;;;7.17;;
19798;SDS011;10059;59.850;10.454;2023-05-14T04:47:16;14.67;;;7.67;;
19798;SDS011;10059;59.850;10.454;2023-05-14T04:49:45;9.30;;;7.10;;
19798;SDS011;10059;59.850;10.454;2023-05-14T04:52:11;13.50;;;7.50;;
19798;SDS011;10059;59.850;10.454;2023-05-14T04:54:38;17.70;;;7.87;;
19798;SDS011;10059;59.850;10.454;2023-05-14T04:57:05;8.40;;;6.93;;
19798;SDS011;10059;59.850;10.454;2023-05-14T04:59:32;9.37;;;7.57;;
19798;SDS011;10059;59.850;10.454;2023-05-14T05:01:59;7.93;;;7.10;;
19798;SDS011;10059;59.850;10.454;2023-05-14T05:04:26;15.73;;;7.40;;
19798;SDS011;10059;59.850;10.454;2023-05-14T05:06:54;8.37;;;6.90;;
19798;SDS011;10059;59.850;10.454;2023-05-14T05:09:21;9.70;;;6.70;;
19798;SDS011;10059;59.850;10.454;2023-05-14T05:11:48;7.83;;;6.83;;
19798;SDS011;10059;59.850;10.454;2023-05-14T05:14:14;8.83;;;6.30;;
19798;SDS011;10059;59.850;10.454;2023-05-14T05:16:41;7.80;;;6.20;;
19798;SDS011;10059;59.850;10.454;2023-05-14T05:19:08;8.50;;;6.17;;
19798;SDS011;10059;59.850;10.454;2023-05-14T05:21:36;7.57;;;6.03;;
19798;SDS011;10059;59.850;10.454;2023-05-14T05:24:06;8.03;;;6.40;;
19798;SDS011;10059;59.850;10.454;2023-05-14T05:26:33;9.90;;;6.27;;
19798;SDS011;10059;59.850;10.454;2023-05-14T05:29:01;6.70;;;5.67;;
19798;SDS011;10059;59.850;10.454;2023-05-14T05:31:28;7.70;;;6.23;;
19798;SDS011;10059;59.850;10.454;2023-05-14T05:33:55;7.93;;;6.33;;
19798;SDS011;10059;59.850;10.454;2023-05-14T05:36:23;6.73;;;5.47;;
19798;SDS011;10059;59.850;10.454;2023-05-14T05:38:50;9.33;;;5.70;;
19798;SDS011;10059;59.850;10.454;2023-05-14T05:41:18;8.70;;;5.77;;
19798;SDS011;10059;59.850;10.454;2023-05-14T05:43:46;10.07;;;5.70;;
19798;SDS011;10059;59.850;10.454;2023-05-14T05:46:13;7.40;;;5.63;;
19798;SDS011;10059;59.850;10.454;2023-05-14T05:48:39;8.50;;;5.93;;
19798;SDS011;10059;59.850;10.454;2023-05-14T05:51:06;6.67;;;4.90;;
19798;SDS011;10059;59.850;10.454;2023-05-14T05:53:33;7.60;;;5.10;;
19798;SDS011;10059;59.850;10.454;2023-05-14T05:56:00;5.90;;;5.30;;
19798;SDS011;10059;59.850;10.454;2023-05-14T05:58:28;7.40;;;5.10;;
19798;SDS011;10059;59.850;10.454;2023-05-14T06:00:55;5.97;;;5.10;;
19798;SDS011;10059;59.850;10.454;2023-05-14T06:03:22;7.60;;;5.23;;
19798;SDS011;10059;59.850;10.454;2023-05-14T06:05:49;8.80;;;5.70;;
19798;SDS011;10059;59.850;10.454;2023-05-14T06:08:16;6.93;;;5.27;;
19798;SDS011;10059;59.850;10.454;2023-05-14T06:10:43;7.17;;;5.57;;
19798;SDS011;10059;59.850;10.454;2023-05-14T06:13:10;10.33;;;5.03;;
19798;SDS011;10059;59.850;10.454;2023-05-14T06:15:39;5.57;;;4.93;;
19798;SDS011;10059;59.850;10.454;2023-05-14T06:18:05;7.57;;;5.50;;
19798;SDS011;10059;59.850;10.454;2023-05-14T06:20:32;6.10;;;5.50;;
19798;SDS011;10059;59.850;10.454;2023-05-14T06:22:59;6.80;;;5.40;;
19798;SDS011;10059;59.850;10.454;2023-05-14T06:25:26;6.43;;;5.43;;
19798;SDS011;10059;59.850;10.454;2023-05-14T06:27:53;6.00;;;5.10;;
19798;SDS011;10059;59.850;10.454;2023-05-14T06:30:20;9.00;;;5.40;;
19798;SDS011;10059;59.850;10.454;2023-05-14T06:32:48;7.73;;;5.53;;
19798;SDS011;10059;59.850;10.454;2023-05-14T06:35:15;9.37;;;5.40;;
19798;SDS011;10059;59.850;10.454;2023-05-14T06:37:42;8.00;;;5.40;;
19798;SDS011;10059;59.850;10.454;2023-05-14T06:40:10;8.27;;;5.27;;
19798;SDS011;10059;59.850;10.454;2023-05-14T06:42:39;7.23;;;5.60;;
19798;SDS011;10059;59.850;10.454;2023-05-14T06:45:06;9.07;;;5.53;;
19798;SDS011;10059;59.850;10.454;2023-05-14T06:47:33;7.10;;;5.70;;
19798;SDS011;10059;59.850;10.454;2023-05-14T06:50:02;7.87;;;5.60;;
19798;SDS011;10059;59.850;10.454;2023-05-14T06:52:29;7.73;;;5.60;;
19798;SDS011;10059;59.850;10.454;2023-05-14T06:54:56;15.00;;;6.00;;
19798;SDS011;10059;59.850;10.454;2023-05-14T06:57:22;5.90;;;5.23;;
19798;SDS011;10059;59.850;10.454;2023-05-14T06:59:49;8.90;;;5.70;;
19798;SDS011;10059;59.850;10.454;2023-05-14T07:02:16;7.20;;;6.00;;
19798;SDS011;10059;59.850;10.454;2023-05-14T07:04:43;8.43;;;5.90;;
19798;SDS011;10059;59.850;10.454;2023-05-14T07:07:11;9.63;;;6.20;;
19798;SDS011;10059;59.850;10.454;2023-05-14T07:09:42;6.60;;;5.87;;
19798;SDS011;10059;59.850;10.454;2023-05-14T07:12:09;8.30;;;6.40;;
19798;SDS011;10059;59.850;10.454;2023-05-14T07:14:36;9.67;;;6.50;;
19798;SDS011;10059;59.850;10.454;2023-05-14T07:17:03;9.73;;;6.13;;
19798;SDS011;10059;59.850;10.454;2023-05-14T07:19:29;9.80;;;6.37;;
19798;SDS011;10059;59.850;10.454;2023-05-14T07:21:56;11.10;;;6.90;;
19798;SDS011;10059;59.850;10.454;2023-05-14T07:24:24;8.33;;;5.97;;
19798;SDS011;10059;59.850;10.454;2023-05-14T07:26:51;9.73;;;6.00;;
19798;SDS011;10059;59.850;10.454;2023-05-14T07:29:19;9.13;;;6.27;;
19798;SDS011;10059;59.850;10.454;2023-05-14T07:31:46;10.43;;;6.00;;
19798;SDS011;10059;59.850;10.454;2023-05-14T07:34:12;8.47;;;5.63;;
19798;SDS011;10059;59.850;10.454;2023-05-14T07:36:39;7.53;;;5.63;;
19798;SDS011;10059;59.850;10.454;2023-05-14T07:39:06;11.43;;;5.97;;
19798;SDS011;10059;59.850;10.454;2023-05-14T07:41:34;12.03;;;5.80;;
19798;SDS011;10059;59.850;10.454;2023-05-14T07:44:01;9.83;;;6.10;;
19798;SDS011;10059;59.850;10.454;2023-05-14T07:46:29;7.20;;;5.63;;
19798;SDS011;10059;59.850;10.454;2023-05-14T07:48:55;9.90;;;5.70;;
19798;SDS011;10059;59.850;10.454;2023-05-14T07:51:22;8.40;;;5.73;;
19798;SDS011;10059;59.850;10.454;2023-05-14T07:53:52;12.37;;;5.93;;
19798;SDS011;10059;59.850;10.454;2023-05-14T07:56:19;9.10;;;5.63;;
19798;SDS011;10059;59.850;10.454;2023-05-14T07:58:47;12.37;;;6.13;;
19798;SDS011;10059;59.850;10.454;2023-05-14T08:01:15;6.90;;;5.73;;
19798;SDS011;10059;59.850;10.454;2023-05-14T08:03:42;9.03;;;5.47;;
19798;SDS011;10059;59.850;10.454;2023-05-14T08:06:08;9.93;;;5.90;;
19798;SDS011;10059;59.850;10.454;2023-05-14T08:08:35;8.20;;;5.60;;
19798;SDS011;10059;59.850;10.454;2023-05-14T08:11:02;12.00;;;5.83;;
19798;SDS011;10059;59.850;10.454;2023-05-14T08:13:29;9.33;;;5.43;;
19798;SDS011;10059;59.850;10.454;2023-05-14T08:15:57;9.40;;;5.60;;
19798;SDS011;10059;59.850;10.454;2023-05-14T08:18:24;6.63;;;5.17;;
19798;SDS011;10059;59.850;10.454;2023-05-14T08:20:51;8.90;;;5.30;;
19798;SDS011;10059;59.850;10.454;2023-05-14T08:23:18;10.97;;;5.70;;
19798;SDS011;10059;59.850;10.454;2023-05-14T08:25:45;10.57;;;5.00;;
19798;SDS011;10059;59.850;10.454;2023-05-14T08:28:11;8.93;;;5.23;;
19798;SDS011;10059;59.850;10.454;2023-05-14T08:30:38;10.70;;;4.87;;
19798;SDS011;10059;59.850;10.454;2023-05-14T08:33:07;9.03;;;4.93;;
19798;SDS011;10059;59.850;10.454;2023-05-14T08:35:33;8.87;;;4.70;;
19798;SDS011;10059;59.850;10.454;2023-05-14T08:38:00;5.83;;;4.30;;
19798;SDS011;10059;59.850;10.454;2023-05-14T08:40:27;6.73;;;4.53;;
19798;SDS011;10059;59.850;10.454;2023-05-14T08:42:54;7.50;;;3.90;;
19798;SDS011;10059;59.850;10.454;2023-05-14T08:45:23;7.57;;;3.90;;
19798;SDS011;10059;59.850;10.454;2023-05-14T08:47:54;8.97;;;4.83;;
19798;SDS011;10059;59.850;10.454;2023-05-14T08:50:24;7.07;;;4.90;;
19798;SDS011;10059;59.850;10.454;2023-05-14T08:52:54;6.73;;;4.80;;
19798;SDS011;10059;59.850;10.454;2023-05-14T08:55:21;9.27;;;4.80;;
19798;SDS011;10059;59.850;10.454;2023-05-14T08:57:48;6.63;;;4.70;;
19798;SDS011;10059;59.850;10.454;2023-05-14T09:00:15;7.63;;;4.23;;
19798;SDS011;10059;59.850;10.454;2023-05-14T09:02:43;9.17;;;4.33;;
19798;SDS011;10059;59.850;10.454;2023-05-14T09:05:11;6.13;;;3.90;;
19798;SDS011;10059;59.850;10.454;2023-05-14T09:07:41;6.80;;;4.10;;
19798;SDS011;10059;59.850;10.454;2023-05-14T09:10:08;6.53;;;4.03;;
19798;SDS011;10059;59.850;10.454;2023-05-14T09:12:36;8.03;;;4.20;;
19798;SDS011;10059;59.850;10.454;2023-05-14T09:15:03;9.37;;;3.90;;
19798;SDS011;10059;59.850;10.454;2023-05-14T09:17:31;8.20;;;4.37;;
19798;SDS011;10059;59.850;10.454;2023-05-14T09:19:59;11.00;;;3.83;;
19798;SDS011;10059;59.850;10.454;2023-05-14T09:22:28;7.23;;;4.10;;
19798;SDS011;10059;59.850;10.454;2023-05-14T09:25:05;10.00;;;3.83;;
19798;SDS011;10059;59.850;10.454;2023-05-14T09:27:33;7.67;;;4.00;;
19798;SDS011;10059;59.850;10.454;2023-05-14T09:30:04;5.57;;;3.27;;
19798;SDS011;10059;59.850;10.454;2023-05-14T09:32:36;7.80;;;3.77;;
19798;SDS011;10059;59.850;10.454;2023-05-14T09:35:11;4.67;;;3.50;;
19798;SDS011;10059;59.850;10.454;2023-05-14T09:37:41;6.57;;;3.33;;
19798;SDS011;10059;59.850;10.454;2023-05-14T09:40:10;6.17;;;3.90;;
19798;SDS011;10059;59.850;10.454;2023-05-14T09:42:38;10.33;;;3.67;;
19798;SDS011;10059;59.850;10.454;2023-05-14T09:45:06;8.40;;;3.57;;
19798;SDS011;10059;59.850;10.454;2023-05-14T09:47:33;9.83;;;3.60;;
19798;SDS011;10059;59.850;10.454;2023-05-14T09:50:01;7.97;;;3.93;;
19798;SDS011;10059;59.850;10.454;2023-05-14T09:52:28;7.37;;;3.70;;
19798;SDS011;10059;59.850;10.454;2023-05-14T09:54:55;5.97;;;3.77;;
19798;SDS011;10059;59.850;10.454;2023-05-14T09:57:23;8.83;;;3.73;;
19798;SDS011;10059;59.850;10.454;2023-05-14T09:59:51;9.50;;;3.93;;
19798;SDS011;10059;59.850;10.454;2023-05-14T10:02:20;5.60;;;3.50;;
19798;SDS011;10059;59.850;10.454;2023-05-14T10:04:49;10.53;;;3.40;;
19798;SDS011;10059;59.850;10.454;2023-05-14T10:07:20;7.60;;;4.17;;
19798;SDS011;10059;59.850;10.454;2023-05-14T10:09:49;8.67;;;3.80;;
19798;SDS011;10059;59.850;10.454;2023-05-14T10:12:20;7.70;;;4.00;;
19798;SDS011;10059;59.850;10.454;2023-05-14T10:14:49;6.93;;;4.03;;
19798;SDS011;10059;59.850;10.454;2023-05-14T10:17:21;7.73;;;4.00;;
19798;SDS011;10059;59.850;10.454;2023-05-14T10:19:52;10.03;;;3.70;;
19798;SDS011;10059;59.850;10.454;2023-05-14T10:22:22;10.70;;;4.10;;
19798;SDS011;10059;59.850;10.454;2023-05-14T10:24:52;10.90;;;3.70;;
19798;SDS011;10059;59.850;10.454;2023-05-14T10:27:20;6.53;;;3.50;;
19798;SDS011;10059;59.850;10.454;2023-05-14T10:29:51;5.47;;;3.57;;
19798;SDS011;10059;59.850;10.454;2023-05-14T10:32:20;5.07;;;3.40;;
19798;SDS011;10059;59.850;10.454;2023-05-14T10:34:49;7.27;;;3.53;;
19798;SDS011;10059;59.850;10.454;2023-05-14T10:37:16;6.90;;;3.67;;
19798;SDS011;10059;59.850;10.454;2023-05-14T10:39:45;7.50;;;3.57;;
19798;SDS011;10059;59.850;10.454;2023-05-14T10:42:15;6.13;;;3.63;;
19798;SDS011;10059;59.850;10.454;2023-05-14T10:44:52;4.90;;;3.73;;
19798;SDS011;10059;59.850;10.454;2023-05-14T10:47:22;8.97;;;3.50;;
19798;SDS011;10059;59.850;10.454;2023-05-14T10:49:51;4.70;;;3.20;;
19798;SDS011;10059;59.850;10.454;2023-05-14T10:52:19;6.43;;;3.50;;
19798;SDS011;10059;59.850;10.454;2023-05-14T10:54:50;4.97;;;3.20;;
19798;SDS011;10059;59.850;10.454;2023-05-14T10:57:18;7.40;;;4.00;;
19798;SDS011;10059;59.850;10.454;2023-05-14T10:59:46;6.27;;;3.50;;
19798;SDS011;10059;59.850;10.454;2023-05-14T11:02:22;4.63;;;3.20;;
19798;SDS011;10059;59.850;10.454;2023-05-14T11:04:52;8.30;;;3.30;;
19798;SDS011;10059;59.850;10.454;2023-05-14T11:07:22;5.40;;;3.10;;
19798;SDS011;10059;59.850;10.454;2023-05-14T11:09:50;6.30;;;3.60;;
19798;SDS011;10059;59.850;10.454;2023-05-14T11:12:18;5.37;;;3.20;;
19798;SDS011;10059;59.850;10.454;2023-05-14T11:14:46;6.07;;;3.57;;
19798;SDS011;10059;59.850;10.454;2023-05-14T11:17:13;9.93;;;3.53;;
19798;SDS011;10059;59.850;10.454;2023-05-14T11:19:43;7.77;;;3.33;;
19798;SDS011;10059;59.850;10.454;2023-05-14T11:22:10;6.07;;;3.30;;
19798;SDS011;10059;59.850;10.454;2023-05-14T11:24:38;7.63;;;3.50;;
19798;SDS011;10059;59.850;10.454;2023-05-14T11:27:06;6.93;;;3.10;;
19798;SDS011;10059;59.850;10.454;2023-05-14T11:29:33;7.23;;;3.50;;
19798;SDS011;10059;59.850;10.454;2023-05-14T11:32:00;9.60;;;3.50;;
19798;SDS011;10059;59.850;10.454;2023-05-14T11:34:28;7.43;;;3.33;;
19798;SDS011;10059;59.850;10.454;2023-05-14T11:36:56;6.67;;;3.30;;
19798;SDS011;10059;59.850;10.454;2023-05-14T11:39:23;9.97;;;3.30;;
19798;SDS011;10059;59.850;10.454;2023-05-14T11:41:50;5.10;;;3.10;;
19798;SDS011;10059;59.850;10.454;2023-05-14T11:44:16;4.97;;;3.30;;
19798;SDS011;10059;59.850;10.454;2023-05-14T11:46:52;5.37;;;3.40;;
19798;SDS011;10059;59.850;10.454;2023-05-14T11:49:20;8.00;;;3.50;;
19798;SDS011;10059;59.850;10.454;2023-05-14T11:51:47;6.27;;;3.20;;
19798;SDS011;10059;59.850;10.454;2023-05-14T11:54:15;5.07;;;3.00;;
19798;SDS011;10059;59.850;10.454;2023-05-14T11:56:47;7.20;;;3.40;;
19798;SDS011;10059;59.850;10.454;2023-05-14T11:59:15;4.13;;;3.00;;
19798;SDS011;10059;59.850;10.454;2023-05-14T12:01:43;4.27;;;3.30;;
19798;SDS011;10059;59.850;10.454;2023-05-14T12:04:10;6.67;;;3.10;;
19798;SDS011;10059;59.850;10.454;2023-05-14T12:06:38;8.73;;;2.97;;
19798;SDS011;10059;59.850;10.454;2023-05-14T12:09:05;8.77;;;3.13;;
19798;SDS011;10059;59.850;10.454;2023-05-14T12:11:34;9.07;;;3.00;;
19798;SDS011;10059;59.850;10.454;2023-05-14T12:14:09;6.80;;;3.20;;
19798;SDS011;10059;59.850;10.454;2023-05-14T12:16:38;7.17;;;2.70;;
19798;SDS011;10059;59.850;10.454;2023-05-14T12:19:07;5.00;;;2.60;;
19798;SDS011;10059;59.850;10.454;2023-05-14T12:21:35;5.80;;;2.60;;
19798;SDS011;10059;59.850;10.454;2023-05-14T12:24:03;6.27;;;2.93;;
19798;SDS011;10059;59.850;10.454;2023-05-14T12:26:31;6.47;;;2.87;;
19798;SDS011;10059;59.850;10.454;2023-05-14T12:29:00;6.20;;;2.77;;
19798;SDS011;10059;59.850;10.454;2023-05-14T12:31:28;5.73;;;2.70;;
19798;SDS011;10059;59.850;10.454;2023-05-14T12:33:55;4.83;;;2.60;;
19798;SDS011;10059;59.850;10.454;2023-05-14T12:36:23;6.00;;;2.83;;
19798;SDS011;10059;59.850;10.454;2023-05-14T12:38:49;8.00;;;2.93;;
19798;SDS011;10059;59.850;10.454;2023-05-14T12:41:24;8.57;;;3.00;;
19798;SDS011;10059;59.850;10.454;2023-05-14T12:43:51;7.93;;;2.70;;
19798;SDS011;10059;59.850;10.454;2023-05-14T12:46:19;5.40;;;2.90;;
19798;SDS011;10059;59.850;10.454;2023-05-14T12:48:46;6.47;;;2.70;;
19798;SDS011;10059;59.850;10.454;2023-05-14T12:51:13;8.30;;;2.93;;
19798;SDS011;10059;59.850;10.454;2023-05-14T12:53:40;4.03;;;2.80;;
19798;SDS011;10059;59.850;10.454;2023-05-14T12:56:07;11.73;;;3.00;;
19798;SDS011;10059;59.850;10.454;2023-05-14T12:58:34;7.73;;;3.20;;
19798;SDS011;10059;59.850;10.454;2023-05-14T13:01:01;8.63;;;3.00;;
19798;SDS011;10059;59.850;10.454;2023-05-14T13:03:29;6.73;;;3.17;;
19798;SDS011;10059;59.850;10.454;2023-05-14T13:05:56;8.13;;;3.00;;
19798;SDS011;10059;59.850;10.454;2023-05-14T13:08:24;13.00;;;3.07;;
19798;SDS011;10059;59.850;10.454;2023-05-14T13:10:51;6.03;;;3.17;;
19798;SDS011;10059;59.850;10.454;2023-05-14T13:13:18;6.90;;;3.40;;
19798;SDS011;10059;59.850;10.454;2023-05-14T13:15:45;7.93;;;3.10;;
19798;SDS011;10059;59.850;10.454;2023-05-14T13:18:12;5.60;;;3.27;;
19798;SDS011;10059;59.850;10.454;2023-05-14T13:20:41;6.50;;;3.20;;
19798;SDS011;10059;59.850;10.454;2023-05-14T13:23:07;6.33;;;2.77;;
19798;SDS011;10059;59.850;10.454;2023-05-14T13:25:34;9.20;;;3.10;;
19798;SDS011;10059;59.850;10.454;2023-05-14T13:28:01;6.80;;;3.30;;
19798;SDS011;10059;59.850;10.454;2023-05-14T13:30:28;14.60;;;3.30;;
19798;SDS011;10059;59.850;10.454;2023-05-14T13:32:56;7.93;;;3.23;;
19798;SDS011;10059;59.850;10.454;2023-05-14T13:35:23;7.87;;;3.50;;
19798;SDS011;10059;59.850;10.454;2023-05-14T13:37:51;10.27;;;3.10;;
19798;SDS011;10059;59.850;10.454;2023-05-14T13:40:18;9.03;;;3.33;;
19798;SDS011;10059;59.850;10.454;2023-05-14T13:42:45;5.83;;;3.20;;
19798;SDS011;10059;59.850;10.454;2023-05-14T13:45:12;11.00;;;3.57;;
19798;SDS011;10059;59.850;10.454;2023-05-14T13:47:38;6.57;;;3.60;;
19798;SDS011;10059;59.850;10.454;2023-05-14T13:50:06;9.67;;;3.43;;
19798;SDS011;10059;59.850;10.454;2023-05-14T13:52:33;8.43;;;3.30;;
19798;SDS011;10059;59.850;10.454;2023-05-14T13:55:01;8.43;;;3.40;;
19798;SDS011;10059;59.850;10.454;2023-05-14T13:57:28;9.33;;;3.53;;
19798;SDS011;10059;59.850;10.454;2023-05-14T13:59:55;9.03;;;3.33;;
19798;SDS011;10059;59.850;10.454;2023-05-14T14:02:22;5.90;;;3.37;;
19798;SDS011;10059;59.850;10.454;2023-05-14T14:04:49;9.30;;;3.77;;
19798;SDS011;10059;59.850;10.454;2023-05-14T14:07:15;17.87;;;3.90;;
19798;SDS011;10059;59.850;10.454;2023-05-14T14:09:42;6.20;;;3.37;;
19798;SDS011;10059;59.850;10.454;2023-05-14T14:12:10;10.53;;;3.60;;
19798;SDS011;10059;59.850;10.454;2023-05-14T14:14:37;8.23;;;3.70;;
19798;SDS011;10059;59.850;10.454;2023-05-14T14:17:04;12.10;;;3.77;;
19798;SDS011;10059;59.850;10.454;2023-05-14T14:19:33;11.67;;;4.03;;
19798;SDS011;10059;59.850;10.454;2023-05-14T14:21:59;7.50;;;3.23;;
19798;SDS011;10059;59.850;10.454;2023-05-14T14:24:26;9.20;;;3.33;;
19798;SDS011;10059;59.850;10.454;2023-05-14T14:26:53;5.83;;;3.20;;
19798;SDS011;10059;59.850;10.454;2023-05-14T14:29:21;8.70;;;3.20;;